Time;durP1;ratioP1;P1;durP2;ratioP2;P2;SDS_P1;SDS_P2;PMS_P1;PMS_P2;Temp;Humidity;BMP_temperature;BMP_pressure;BME280_temperature;BME280_humidity;BME280_pressure;Samples;Min_cycle;Max_cycle;Signal;HPM_P1;HPM_P2
2022/08/05 00:00:20;;;;;;;4.50;4.00;;;;;;;18.74;66.67;96539.88;5113483;28;20046;-67
2022/08/05 00:02:48;;;;;;;4.90;4.40;;;;;;;18.52;68.47;96529.03;5113692;28;20050;-68
2022/08/05 00:05:15;;;;;;;4.97;4.47;;;;;;;18.43;69.39;96538.44;5113294;28;20052;-71
2022/08/05 00:07:42;;;;;;;6.20;4.72;;;;;;;18.24;70.47;96533.59;5113496;28;20051;-71
2022/08/05 00:10:10;;;;;;;4.82;4.43;;;;;;;18.16;70.91;96535.94;5113377;28;20130;-67
2022/08/05 00:12:38;;;;;;;6.80;4.88;;;;;;;18.12;70.54;96529.16;5113487;28;20047;-68
2022/08/05 00:15:06;;;;;;;5.30;4.65;;;;;;;18.12;70.14;96530.00;5113418;28;20127;-67
2022/08/05 00:17:33;;;;;;;5.20;4.70;;;;;;;18.11;70.28;96530.09;5113571;28;20142;-65
2022/08/05 00:20:01;;;;;;;5.28;4.57;;;;;;;18.08;70.36;96527.63;5113571;28;20047;-68
2022/08/05 00:22:28;;;;;;;5.50;4.65;;;;;;;18.07;70.35;96526.78;5117340;28;20100;-68
2022/08/05 00:24:55;;;;;;;4.63;4.22;;;;;;;18.03;70.38;96528.78;5117604;28;20170;-67
2022/08/05 00:27:22;;;;;;;5.15;4.65;;;;;;;18.00;70.57;96528.16;5117495;28;20051;-65
2022/08/05 00:29:50;;;;;;;5.13;4.47;;;;;;;18.05;70.76;96526.03;5117571;28;20047;-68
2022/08/05 00:32:17;;;;;;;5.10;4.60;;;;;;;18.10;70.42;96523.09;5117566;28;20088;-67
2022/08/05 00:34:45;;;;;;;4.82;4.43;;;;;;;18.14;70.26;96524.59;5117438;28;20093;-68
2022/08/05 00:37:12;;;;;;;7.38;4.70;;;;;;;18.17;70.51;96522.59;5117347;28;20044;-68
2022/08/05 00:39:41;;;;;;;4.53;4.13;;;;;;;18.23;70.58;96526.59;5117224;28;20527;-67
2022/08/05 00:42:08;;;;;;;5.35;4.85;;;;;;;18.34;70.80;96528.50;5117190;28;20120;-66
2022/08/05 00:44:35;;;;;;;5.25;4.75;;;;;;;18.34;70.60;96525.00;5117261;27;20126;-69
2022/08/05 00:47:04;;;;;;;6.07;4.55;;;;;;;18.34;70.68;96520.56;5117366;28;20134;-66
2022/08/05 00:49:31;;;;;;;7.00;4.55;;;;;;;18.41;71.35;96516.53;5117162;28;20086;-69
2022/08/05 00:51:58;;;;;;;5.35;4.85;;;;;;;18.46;71.95;96518.00;5116934;28;20051;-68
2022/08/05 00:54:25;;;;;;;5.13;4.72;;;;;;;18.52;71.31;96514.94;5117039;28;20043;-67
2022/08/05 00:56:52;;;;;;;8.90;4.65;;;;;;;18.58;71.18;96514.50;5116955;28;20116;-69
2022/08/05 00:59:19;;;;;;;7.10;4.63;;;;;;;18.59;70.60;96505.59;5116997;28;20047;-66
2022/08/05 01:01:46;;;;;;;8.52;4.60;;;;;;;18.64;70.91;96513.22;5116868;28;20119;-67
2022/08/05 01:04:15;;;;;;;5.43;4.70;;;;;;;18.67;70.56;96505.03;5116737;28;20052;-66
2022/08/05 01:06:42;;;;;;;5.05;4.50;;;;;;;18.68;70.56;96509.38;5116769;28;20075;-69
2022/08/05 01:09:09;;;;;;;4.95;4.45;;;;;;;18.68;70.32;96502.28;5116950;28;20043;-66
2022/08/05 01:11:39;;;;;;;6.32;4.70;;;;;;;18.71;70.61;96506.50;5116709;28;20087;-67
2022/08/05 01:14:13;;;;;;;4.72;4.32;;;;;;;18.71;70.69;96509.16;5116792;28;20082;-67
2022/08/05 01:16:48;;;;;;;7.78;4.43;;;;;;;18.65;71.52;96507.81;5116717;28;20043;-67
2022/08/05 01:19:31;;;;;;;4.97;4.55;;;;;;;18.63;71.19;96507.06;5116690;28;20070;-68
2022/08/05 01:22:29;;;;;;;7.80;4.25;;;;;;;18.64;71.43;96503.47;5116581;28;20044;-67
2022/08/05 01:25:12;;;;;;;5.63;4.65;;;;;;;18.61;71.03;96511.63;5116413;28;20492;-66
2022/08/05 01:28:23;;;;;;;4.72;4.32;;;;;;;18.64;71.53;96510.56;5116491;28;20481;-67
2022/08/05 01:30:54;;;;;;;4.72;4.32;;;;;;;18.66;71.15;96511.31;5053637;28;20421;-69
2022/08/05 01:33:28;;;;;;;4.63;4.13;;;;;;;18.66;71.31;96506.00;5108295;28;20086;-68
2022/08/05 01:35:57;;;;;;;7.00;4.90;;;;;;;18.63;71.55;96506.22;5116325;28;20112;-69
2022/08/05 01:38:27;;;;;;;5.10;4.63;;;;;;;18.62;71.11;96504.50;5116226;28;20123;-66
2022/08/05 01:40:57;;;;;;;4.93;4.47;;;;;;;18.66;71.04;96500.72;5116186;28;20054;-70
2022/08/05 01:43:27;;;;;;;4.78;4.38;;;;;;;18.65;71.10;96504.28;5116150;28;20047;-68
2022/08/05 01:45:56;;;;;;;8.00;5.25;;;;;;;18.64;70.79;96508.78;5116316;28;20052;-68
2022/08/05 01:48:25;;;;;;;9.25;4.65;;;;;;;18.62;71.37;96510.66;5115926;28;20079;-69
2022/08/05 01:50:53;;;;;;;7.05;4.60;;;;;;;18.63;71.20;96511.53;5115989;28;20571;-67
2022/08/05 01:53:22;;;;;;;6.25;4.50;;;;;;;18.65;70.75;96509.59;5115875;27;20051;-69
2022/08/05 01:55:51;;;;;;;4.93;4.43;;;;;;;18.64;70.67;96510.56;5115978;28;20122;-69
2022/08/05 01:58:22;;;;;;;5.68;5.03;;;;;;;18.61;70.50;96502.84;5115908;27;20108;-69
2022/08/05 02:00:51;;;;;;;;;;;;;;;18.59;70.69;96504.72;5116178;28;20048;-71
2022/08/05 02:03:25;;;;;;;6.50;4.55;;;;;;;18.50;70.83;96511.53;5115808;28;19923;-68
2022/08/05 02:05:53;;;;;;;5.22;4.13;;;;;;;18.46;70.88;96505.63;5115676;28;20135;-67
2022/08/05 02:08:21;;;;;;;5.43;4.45;;;;;;;18.45;71.31;96498.63;5115757;28;20101;-66
2022/08/05 02:10:53;;;;;;;4.65;4.20;;;;;;;18.46;71.31;96495.03;5115508;28;20048;-70
2022/08/05 02:13:27;;;;;;;6.10;4.20;;;;;;;18.43;71.19;96497.91;5115532;28;20210;-67
2022/08/05 02:16:04;;;;;;;5.65;4.53;;;;;;;18.43;71.24;96493.44;5115491;28;20518;-70
2022/08/05 02:18:36;;;;;;;5.43;4.93;;;;;;;18.44;71.33;96496.94;5115445;28;20093;-68
2022/08/05 02:21:09;;;;;;;6.97;4.43;;;;;;;18.47;71.45;96503.81;5115391;28;20059;-71
2022/08/05 02:23:40;;;;;;;4.85;4.45;;;;;;;18.47;71.16;96494.06;5115312;28;20093;-68
2022/08/05 02:26:10;;;;;;;5.78;4.45;;;;;;;18.43;71.35;96498.72;5115369;28;20048;-69
2022/08/05 02:28:42;;;;;;;4.32;3.95;;;;;;;18.46;71.38;96500.31;5115344;28;20054;-69
2022/08/05 02:31:15;;;;;;;4.65;4.10;;;;;;;18.47;71.47;96496.72;5115075;28;20050;-68
2022/08/05 02:33:50;;;;;;;4.40;4.07;;;;;;;18.47;71.26;96493.22;5115277;28;20048;-67
2022/08/05 02:36:21;;;;;;;4.53;4.00;;;;;;;18.48;70.85;96493.09;5115138;28;20048;-67
2022/08/05 02:38:49;;;;;;;4.63;4.20;;;;;;;18.50;70.65;96500.94;5115124;27;20109;-69
2022/08/05 02:41:19;;;;;;;6.78;4.40;;;;;;;18.52;70.81;96507.84;5115208;28;20404;-69
2022/08/05 02:43:48;;;;;;;7.13;4.60;;;;;;;18.51;70.90;96492.06;5114637;28;20098;-66
2022/08/05 02:46:20;;;;;;;4.68;4.28;;;;;;;18.46;71.08;96486.22;5114525;28;20051;-68
2022/08/05 02:48:48;;;;;;;7.40;4.30;;;;;;;18.43;71.10;96489.94;5114954;28;20071;-66
2022/08/05 02:51:17;;;;;;;5.18;3.95;;;;;;;18.45;71.15;96488.03;5114818;28;20082;-66
2022/08/05 02:53:46;;;;;;;4.57;4.18;;;;;;;18.40;71.17;96492.81;5114804;28;20126;-67
2022/08/05 02:56:14;;;;;;;4.28;3.88;;;;;;;18.39;71.15;96489.31;5114753;28;20131;-67
2022/08/05 02:58:41;;;;;;;5.15;4.15;;;;;;;18.39;71.23;96488.47;5114640;28;20051;-69
2022/08/05 03:01:13;;;;;;;9.40;4.20;;;;;;;18.34;70.62;96486.16;5114676;28;20405;-65
2022/08/05 03:03:44;;;;;;;4.68;4.25;;;;;;;18.30;71.10;96490.81;5114392;28;20131;-67
2022/08/05 03:06:12;;;;;;;4.80;4.30;;;;;;;18.29;70.76;96482.97;5114630;28;20217;-67
2022/08/05 03:08:40;;;;;;;7.13;4.25;;;;;;;18.19;71.16;96477.50;5114571;28;20051;-66
2022/08/05 03:11:17;;;;;;;8.43;4.95;;;;;;;18.17;71.06;96488.19;5114380;27;20039;-67
2022/08/05 03:13:44;;;;;;;5.18;4.68;;;;;;;18.14;71.17;96488.41;5114389;28;20090;-68
2022/08/05 03:16:11;;;;;;;4.40;4.00;;;;;;;18.13;71.07;96491.16;5114384;28;20075;-69
2022/08/05 03:18:39;;;;;;;5.45;4.40;;;;;;;18.07;71.51;96487.09;5114320;28;20488;-70
2022/08/05 03:21:07;;;;;;;7.25;4.43;;;;;;;18.05;71.23;96494.28;5114234;28;20063;-68
2022/08/05 03:23:36;;;;;;;4.75;4.38;;;;;;;18.06;71.23;96490.69;5114189;28;20091;-69
2022/08/05 03:26:04;;;;;;;4.40;4.00;;;;;;;18.06;71.17;96496.81;5114192;28;20058;-69
2022/08/05 03:28:32;;;;;;;5.15;4.63;;;;;;;17.95;71.61;96491.44;5114076;28;20051;-67
2022/08/05 03:31:01;;;;;;;4.80;4.22;;;;;;;17.91;71.37;96489.97;5113992;28;20058;-68
2022/08/05 03:33:29;;;;;;;5.18;4.68;;;;;;;17.94;71.48;96485.28;5114053;28;20069;-68
2022/08/05 03:35:57;;;;;;;4.38;3.97;;;;;;;17.97;71.33;96488.69;5114000;28;20050;-68
2022/08/05 03:38:27;;;;;;;5.68;5.10;;;;;;;18.02;70.95;96492.72;5113844;28;20054;-69
2022/08/05 03:40:54;;;;;;;4.65;4.25;;;;;;;18.02;71.01;96491.84;5113936;28;20101;-71
2022/08/05 03:43:23;;;;;;;5.35;4.85;;;;;;;18.04;71.00;96490.81;5113945;28;20552;-67
2022/08/05 03:45:51;;;;;;;4.57;4.15;;;;;;;18.11;70.93;96490.38;5114072;28;20043;-70
2022/08/05 03:48:19;;;;;;;5.00;4.60;;;;;;;18.13;70.37;96493.78;5113698;28;20047;-67
2022/08/05 03:50:53;;;;;;;5.20;4.30;;;;;;;18.11;70.42;96499.19;5113779;28;20044;-66
2022/08/05 03:53:29;;;;;;;5.10;4.65;;;;;;;18.05;70.90;96495.16;5113779;28;20082;-68
2022/08/05 03:56:03;;;;;;;4.60;4.10;;;;;;;18.08;70.73;96498.50;5113343;28;20075;-65
2022/08/05 03:58:32;;;;;;;6.78;4.10;;;;;;;18.12;70.74;96495.59;5113547;28;20078;-66
2022/08/05 04:01:03;;;;;;;10.65;4.82;;;;;;;18.25;70.34;96498.25;5113549;28;20090;-69
2022/08/05 04:03:34;;;;;;;6.20;4.10;;;;;;;18.58;69.28;96497.75;5113271;28;20425;-68
2022/08/05 04:06:03;;;;;;;4.63;4.15;;;;;;;18.98;68.37;96501.97;5113540;28;20047;-67
2022/08/05 04:08:33;;;;;;;5.65;3.83;;;;;;;19.29;66.78;96502.38;5113547;28;20510;-68
2022/08/05 04:11:01;;;;;;;3.90;3.58;;;;;;;19.63;65.83;96496.38;5113466;28;20452;-67
2022/08/05 04:13:29;;;;;;;3.92;3.53;;;;;;;20.10;64.12;96495.53;5113565;28;20096;-70
2022/08/05 04:15:56;;;;;;;5.22;3.88;;;;;;;20.52;62.41;96494.91;5113612;28;20048;-66
2022/08/05 04:18:24;;;;;;;5.57;3.72;;;;;;;20.93;61.42;96489.94;5113451;28;20051;-66
2022/08/05 04:20:55;;;;;;;3.80;3.28;;;;;;;21.39;59.81;96498.63;5113427;28;20051;-68
2022/08/05 04:23:23;;;;;;;6.50;3.60;;;;;;;21.84;58.45;96496.72;5113525;28;20047;-67
2022/08/05 04:25:52;;;;;;;7.18;3.53;;;;;;;22.26;57.00;96492.34;5113345;28;20536;-67
2022/08/05 04:28:20;;;;;;;3.50;3.17;;;;;;;22.68;56.14;96494.06;5113363;28;20043;-67
2022/08/05 04:30:48;;;;;;;5.93;3.42;;;;;;;23.11;55.28;96494.72;5113262;28;20048;-69
2022/08/05 04:33:16;;;;;;;5.10;3.50;;;;;;;23.53;53.86;96496.31;5113352;28;20058;-70
2022/08/05 04:35:44;;;;;;;4.05;3.50;;;;;;;23.96;53.11;96487.97;5113211;28;20087;-69
2022/08/05 04:38:11;;;;;;;3.45;3.15;;;;;;;24.32;52.17;96495.38;5113152;28;20044;-69
2022/08/05 04:40:40;;;;;;;3.28;2.70;;;;;;;24.67;51.21;96490.25;5113360;28;20058;-68
2022/08/05 04:43:08;;;;;;;4.03;2.90;;;;;;;25.04;50.45;96488.56;5113185;28;20488;-66
2022/08/05 04:45:36;;;;;;;5.80;3.10;;;;;;;25.40;49.53;96488.56;5113070;28;20059;-68
2022/08/05 04:48:07;;;;;;;7.10;2.97;;;;;;;25.73;48.93;96480.00;5113150;28;20047;-67
2022/08/05 04:50:40;;;;;;;2.88;2.55;;;;;;;26.05;48.16;96477.69;5113280;28;20043;-68
2022/08/05 04:53:07;;;;;;;2.65;2.42;;;;;;;26.39;47.49;96481.44;5113169;28;20083;-67
2022/08/05 04:55:34;;;;;;;8.82;2.88;;;;;;;26.60;47.19;96489.06;5113086;28;20484;-69
2022/08/05 04:58:01;;;;;;;3.58;3.00;;;;;;;26.92;46.86;96482.16;5113258;28;20075;-68
2022/08/05 05:00:30;;;;;;;7.03;2.95;;;;;;;27.24;46.01;96487.81;5113238;28;20075;-66
2022/08/05 05:02:57;;;;;;;4.20;2.65;;;;;;;27.49;45.50;96475.25;5113265;28;20047;-67
2022/08/05 05:05:24;;;;;;;3.10;2.80;;;;;;;27.83;43.91;96484.16;5112903;28;20112;-69
2022/08/05 05:07:52;;;;;;;3.53;2.60;;;;;;;28.16;44.72;96477.88;5113957;28;20049;-69
2022/08/05 05:10:19;;;;;;;5.65;3.55;;;;;;;28.37;42.92;96476.50;5116818;28;20553;-68
2022/08/05 05:12:46;;;;;;;3.47;2.47;;;;;;;28.66;43.15;96477.75;5116843;28;20078;-70
2022/08/05 05:15:13;;;;;;;4.70;2.70;;;;;;;28.97;42.14;96470.72;5116794;28;20044;-69
2022/08/05 05:17:44;;;;;;;3.88;2.60;;;;;;;29.33;40.98;96472.88;5116605;28;20096;-68
2022/08/05 05:20:12;;;;;;;3.65;2.38;;;;;;;29.55;40.39;96469.50;5116557;28;20047;-68
2022/08/05 05:22:39;;;;;;;5.85;3.00;;;;;;;29.84;41.20;96471.47;5116568;27;20048;-67
2022/08/05 05:25:08;;;;;;;4.97;2.65;;;;;;;30.16;39.20;96465.97;5116511;28;20446;-69
2022/08/05 05:27:37;;;;;;;6.63;2.70;;;;;;;30.36;38.93;96471.66;5116525;28;20073;-67
2022/08/05 05:30:06;;;;;;;3.25;2.50;;;;;;;30.59;39.25;96465.31;5116532;28;20138;-68
2022/08/05 05:32:33;;;;;;;3.20;2.10;;;;;;;30.74;38.76;96470.69;5116286;28;20506;-69
2022/08/05 05:35:01;;;;;;;2.72;2.53;;;;;;;30.95;38.42;96471.81;5116383;28;20104;-68
2022/08/05 05:37:29;;;;;;;4.63;2.25;;;;;;;31.12;37.64;96461.59;5116216;28;20039;-70
2022/08/05 05:39:56;;;;;;;7.03;2.63;;;;;;;31.39;38.44;96466.44;5116191;28;20079;-67
2022/08/05 05:42:23;;;;;;;3.88;2.97;;;;;;;31.63;37.37;96465.22;5116291;28;20040;-67
2022/08/05 05:44:50;;;;;;;5.63;2.50;;;;;;;31.89;37.18;96465.63;5116230;28;20093;-69
2022/08/05 05:47:17;;;;;;;3.03;2.65;;;;;;;32.11;36.83;96468.34;5116119;28;20131;-70
2022/08/05 05:49:44;;;;;;;3.33;2.70;;;;;;;32.37;35.75;96462.25;5115971;28;20582;-69
2022/08/05 05:52:13;;;;;;;3.50;2.40;;;;;;;32.55;35.83;96470.88;5115858;28;20055;-68
2022/08/05 05:54:40;;;;;;;2.50;2.30;;;;;;;32.67;34.79;96460.31;5115865;28;20534;-69
2022/08/05 05:57:07;;;;;;;4.75;2.45;;;;;;;32.36;33.19;96465.16;5116040;28;20051;-67
2022/08/05 05:59:34;;;;;;;4.63;2.35;;;;;;;32.52;32.41;96461.31;5115852;28;20143;-68
2022/08/05 06:02:01;;;;;;;3.50;2.63;;;;;;;32.82;32.29;96465.59;5115881;28;20040;-68
2022/08/05 06:04:28;;;;;;;8.50;2.60;;;;;;;33.16;31.51;96463.84;5115665;28;20496;-68
2022/08/05 06:06:55;;;;;;;2.95;2.15;;;;;;;33.55;31.64;96463.31;5115635;28;20044;-67
2022/08/05 06:09:24;;;;;;;4.68;2.35;;;;;;;33.82;29.99;96460.63;5115714;28;20043;-68
2022/08/05 06:11:51;;;;;;;3.80;2.30;;;;;;;33.89;29.08;96456.88;5115862;28;20504;-68
2022/08/05 06:14:18;;;;;;;3.35;2.25;;;;;;;33.96;28.63;96456.03;5115665;28;20044;-67
2022/08/05 06:16:45;;;;;;;6.90;2.25;;;;;;;34.06;28.49;96458.31;5115665;28;20456;-68
2022/08/05 06:19:12;;;;;;;2.38;1.63;;;;;;;34.12;27.69;96460.19;5115305;28;20090;-69
2022/08/05 06:21:39;;;;;;;2.20;2.00;;;;;;;34.00;28.01;96454.56;5115511;28;20123;-68
2022/08/05 06:24:08;;;;;;;4.10;2.00;;;;;;;33.92;26.72;96455.63;5115569;28;20044;-67
2022/08/05 06:26:36;;;;;;;3.90;1.80;;;;;;;33.98;27.77;96454.75;5115374;28;20495;-66
2022/08/05 06:29:04;;;;;;;4.45;1.95;;;;;;;34.08;26.19;96464.34;5115428;28;20058;-67
2022/08/05 06:31:32;;;;;;;3.03;1.92;;;;;;;33.97;26.30;96465.81;5115183;28;20048;-68
2022/08/05 06:33:59;;;;;;;4.18;1.80;;;;;;;32.93;27.15;96461.47;5115033;28;20052;-69
2022/08/05 06:36:27;;;;;;;4.80;2.10;;;;;;;32.59;28.89;96466.78;5115134;27;20559;-66
2022/08/05 06:38:54;;;;;;;3.55;1.90;;;;;;;32.38;28.56;96463.91;5115149;28;20416;-67
2022/08/05 06:41:21;;;;;;;3.38;2.47;;;;;;;32.05;28.85;96467.25;5115037;28;20129;-71
2022/08/05 06:43:50;;;;;;;5.05;1.73;;;;;;;31.54;30.04;96468.28;5115094;28;20385;-71
2022/08/05 06:46:17;;;;;;;4.45;2.20;;;;;;;30.98;31.43;96459.78;5114989;28;20043;-69
2022/08/05 06:48:44;;;;;;;1.83;1.73;;;;;;;31.01;31.14;96465.66;5114940;28;20050;-71
2022/08/05 06:51:11;;;;;;;7.10;1.98;;;;;;;30.94;31.19;96472.00;5114909;28;20048;-69
2022/08/05 06:53:38;;;;;;;2.10;1.90;;;;;;;30.92;31.34;96474.88;5114870;28;20047;-69
2022/08/05 06:56:06;;;;;;;3.45;1.92;;;;;;;30.62;31.62;96470.34;5114800;28;20047;-68
2022/08/05 06:58:33;;;;;;;2.33;2.10;;;;;;;30.76;30.79;96471.34;5114436;27;20055;-69
2022/08/05 07:01:02;;;;;;;2.70;2.25;;;;;;;30.44;31.49;96473.41;5114752;27;20455;-70
2022/08/05 07:03:31;;;;;;;3.00;1.98;;;;;;;30.75;32.57;96472.38;5114465;27;20044;-70
2022/08/05 07:06:00;;;;;;;6.13;2.10;;;;;;;31.10;32.00;96479.88;5114583;28;20116;-71
2022/08/05 07:08:28;;;;;;;5.50;1.67;;;;;;;31.21;31.00;96470.41;5114655;28;20395;-69
2022/08/05 07:10:55;;;;;;;5.03;2.13;;;;;;;31.02;31.14;96471.88;5114498;28;20465;-70
2022/08/05 07:18:54;;;;;;;6.13;2.20;;;;;;;31.09;31.14;96485.47;5114452;28;20054;-71
2022/08/05 07:21:21;;;;;;;2.40;2.17;;;;;;;31.10;30.75;96476.31;5114332;28;20043;-69
2022/08/05 07:23:48;;;;;;;5.40;2.10;;;;;;;31.36;30.58;96474.97;5114198;28;20044;-70
2022/08/05 07:26:15;;;;;;;2.38;2.00;;;;;;;31.73;30.04;96480.28;5114342;28;20047;-69
2022/08/05 07:28:43;;;;;;;4.75;1.95;;;;;;;31.85;30.56;96481.44;5114283;28;20445;-70
2022/08/05 07:31:11;;;;;;;4.03;2.20;;;;;;;31.96;30.43;96466.56;5113499;27;20454;-68
2022/08/05 07:33:39;;;;;;;3.78;2.03;;;;;;;32.10;29.14;96477.47;5114002;28;20500;-67
2022/08/05 07:36:07;;;;;;;2.67;1.98;;;;;;;31.79;29.46;96476.81;5114140;27;20044;-68
2022/08/05 07:38:35;;;;;;;6.57;1.90;;;;;;;31.84;29.84;96473.53;5113956;28;20105;-69
2022/08/05 07:41:03;;;;;;;2.60;1.60;;;;;;;31.77;30.01;96474.28;5113936;28;20473;-69
2022/08/05 07:43:30;;;;;;;1.95;1.65;;;;;;;31.81;29.83;96474.72;5113954;28;20076;-69
2022/08/05 07:45:58;;;;;;;3.45;1.83;;;;;;;32.08;29.96;96468.72;5114022;28;20445;-67
2022/08/05 07:48:27;;;;;;;4.28;2.00;;;;;;;32.07;29.19;96475.16;5113901;28;20040;-69
2022/08/05 07:50:54;;;;;;;2.25;1.88;;;;;;;31.84;29.32;96481.63;5113890;28;20043;-67
2022/08/05 07:53:21;;;;;;;4.72;1.67;;;;;;;31.51;29.87;96478.41;5113674;28;20093;-68
2022/08/05 07:55:48;;;;;;;2.50;1.80;;;;;;;31.74;29.25;96473.84;5113738;28;20048;-70
2022/08/05 07:58:16;;;;;;;5.50;2.17;;;;;;;31.97;29.40;96472.81;5113834;28;20043;-68
2022/08/05 08:00:43;;;;;;;4.85;1.88;;;;;;;32.27;28.03;96470.72;5113807;28;20501;-67
2022/08/05 08:03:11;;;;;;;5.75;2.13;;;;;;;32.30;28.96;96477.63;5113746;28;20043;-67
2022/08/05 08:05:41;;;;;;;2.28;2.08;;;;;;;32.68;28.66;96470.13;5113324;28;20055;-69
2022/08/05 08:08:08;;;;;;;3.28;2.17;;;;;;;32.85;28.21;96463.34;5113652;28;20081;-68
2022/08/05 08:10:35;;;;;;;4.70;2.20;;;;;;;32.83;28.49;96472.72;5113478;28;20051;-69
2022/08/05 08:13:03;;;;;;;2.35;2.00;;;;;;;32.32;28.68;96475.53;5113402;28;20139;-66
2022/08/05 08:15:31;;;;;;;5.43;1.90;;;;;;;32.32;28.78;96467.41;5113566;28;20040;-67
2022/08/05 08:17:59;;;;;;;4.80;1.95;;;;;;;32.60;27.94;96466.53;5113359;28;20428;-68
2022/08/05 08:20:26;;;;;;;3.08;2.08;;;;;;;32.67;28.10;96461.19;5113546;28;20047;-66
2022/08/05 08:22:57;;;;;;;3.92;2.15;;;;;;;32.74;27.73;96463.91;5113498;28;20104;-69
2022/08/05 08:25:27;;;;;;;3.67;3.38;;;;;;;32.63;27.80;96457.22;5113383;28;20043;-68
2022/08/05 08:27:54;;;;;;;4.28;2.63;;;;;;;32.70;27.61;96451.81;5113349;28;20044;-65
2022/08/05 08:30:22;;;;;;;3.45;2.40;;;;;;;32.93;26.83;96451.50;5113496;28;20055;-67
2022/08/05 08:32:50;;;;;;;3.03;1.92;;;;;;;32.57;27.62;96456.16;5113450;28;20497;-67
2022/08/05 08:35:17;;;;;;;3.45;1.90;;;;;;;32.30;27.98;96455.13;5113348;27;20047;-66
2022/08/05 08:37:44;;;;;;;4.60;2.00;;;;;;;32.62;27.04;96448.25;5113166;28;20105;-68
2022/08/05 08:40:13;;;;;;;2.20;2.00;;;;;;;32.53;26.92;96455.69;5113349;28;20050;-66
2022/08/05 08:42:42;;;;;;;3.97;2.20;;;;;;;32.51;27.28;96441.53;5115638;28;20044;-68
2022/08/05 08:45:11;;;;;;;3.47;2.20;;;;;;;32.34;27.31;96449.13;5117277;28;20044;-68
2022/08/05 08:47:42;;;;;;;2.83;2.05;;;;;;;32.33;27.00;96443.91;5117310;28;20051;-65
2022/08/05 08:50:12;;;;;;;2.17;1.85;;;;;;;32.59;28.30;96448.63;5117031;28;20096;-67
2022/08/05 08:52:40;;;;;;;2.10;1.90;;;;;;;32.83;27.78;96446.44;5117088;28;20052;-69
2022/08/05 08:55:08;;;;;;;2.20;2.00;;;;;;;32.81;27.71;96435.00;5117128;28;20126;-69
2022/08/05 08:57:37;;;;;;;3.08;2.00;;;;;;;33.06;27.71;96444.47;5117202;28;20048;-68
2022/08/05 09:00:07;;;;;;;3.85;2.05;;;;;;;33.32;27.87;96437.44;5117153;28;20467;-66
2022/08/05 09:02:35;;;;;;;3.53;1.75;;;;;;;33.66;27.11;96430.19;5116876;28;20043;-67
2022/08/05 09:05:04;;;;;;;3.08;2.45;;;;;;;33.97;26.05;96434.13;5116806;28;20040;-68
2022/08/05 09:07:31;;;;;;;2.60;1.83;;;;;;;33.44;25.39;96438.50;5116956;28;20131;-67
2022/08/05 09:09:58;;;;;;;5.35;2.20;;;;;;;33.15;25.98;96425.13;5116866;28;20135;-67
2022/08/05 09:12:26;;;;;;;3.03;1.83;;;;;;;33.33;26.84;96425.53;5116892;28;20054;-66
2022/08/05 09:14:55;;;;;;;3.33;2.20;;;;;;;33.44;25.93;96422.25;5116762;28;20051;-68
2022/08/05 09:17:22;;;;;;;2.45;2.03;;;;;;;33.28;25.78;96420.75;5116722;28;20047;-67
2022/08/05 09:19:49;;;;;;;4.20;1.90;;;;;;;33.12;25.80;96403.03;5116747;28;20090;-67
2022/08/05 09:22:16;;;;;;;2.00;1.88;;;;;;;33.42;24.24;96402.63;5116645;28;20134;-69
2022/08/05 09:24:58;;;;;;;2.25;1.50;;;;;;;33.47;25.55;96410.16;5116563;28;20100;-66
2022/08/05 09:27:34;;;;;;;5.07;1.88;;;;;;;33.91;25.58;96410.56;5116576;28;20069;-68
2022/08/05 09:30:03;;;;;;;4.68;1.80;;;;;;;33.71;25.21;96405.97;5116402;28;20043;-65
2022/08/05 09:32:37;;;;;;;4.68;2.15;;;;;;;33.44;25.79;96407.84;5116411;28;20051;-68
2022/08/05 09:35:12;;;;;;;5.05;1.95;;;;;;;33.48;25.97;96406.38;5116323;28;20044;-65
2022/08/05 09:37:49;;;;;;;2.03;1.70;;;;;;;33.62;25.49;96407.25;5116277;28;20043;-66
2022/08/05 09:40:35;;;;;;;6.95;2.08;;;;;;;32.56;26.32;96410.34;5116303;28;20426;-66
2022/08/05 09:43:05;;;;;;;2.95;1.75;;;;;;;32.30;26.82;96412.69;5116094;27;20039;-67
2022/08/05 09:45:39;;;;;;;8.95;2.03;;;;;;;32.05;27.69;96406.94;5116083;28;20043;-65
2022/08/05 09:48:25;;;;;;;4.25;1.83;;;;;;;32.24;27.66;96410.78;5116046;28;20047;-67
2022/08/05 09:50:55;;;;;;;4.82;1.75;;;;;;;32.58;27.36;96403.69;5116107;28;20096;-68
2022/08/05 09:53:24;;;;;;;1.83;1.70;;;;;;;32.77;26.53;96402.06;5115383;28;20175;-67
2022/08/05 09:55:53;;;;;;;4.93;1.58;;;;;;;32.93;25.79;96396.50;5115886;28;20054;-67
2022/08/05 09:58:21;;;;;;;2.03;1.77;;;;;;;32.98;25.15;96402.97;5115783;27;20087;-68
2022/08/05 10:01:01;;;;;;;3.47;1.83;;;;;;;33.25;26.13;96388.66;5115897;28;20047;-67
2022/08/05 10:03:29;;;;;;;1.70;1.55;;;;;;;33.63;25.30;96385.38;5115638;28;20051;-68
2022/08/05 10:06:08;;;;;;;5.07;2.00;;;;;;;33.98;24.67;96376.13;5115907;28;20051;-66
2022/08/05 10:08:36;;;;;;;1.90;1.70;;;;;;;33.86;23.32;96370.50;5115781;28;20040;-67
2022/08/05 10:11:05;;;;;;;2.08;1.60;;;;;;;33.87;23.98;96382.19;5115759;28;20442;-66
2022/08/05 10:13:36;;;;;;;5.75;1.95;;;;;;;33.39;25.09;96381.38;5115730;28;20074;-66
2022/08/05 10:16:05;;;;;;;;;;;;;;;33.36;25.06;96381.78;5116170;28;20054;-66
2022/08/05 10:18:32;;;;;;;2.00;1.80;;;;;;;33.20;25.54;96377.63;5115627;28;19958;-67
2022/08/05 10:21:02;;;;;;;1.80;1.50;;;;;;;32.87;25.23;96371.91;5115612;28;20480;-68
2022/08/05 10:23:32;;;;;;;1.80;1.58;;;;;;;32.73;25.50;96367.50;5115571;28;20051;-69
2022/08/05 10:26:00;;;;;;;;;;;;;;;32.59;25.11;96364.75;5115810;28;20138;-67
2022/08/05 10:28:29;;;;;;;5.13;1.60;;;;;;;32.38;25.94;96371.94;5115408;28;19955;-67
2022/08/05 10:30:57;;;;;;;2.38;1.52;;;;;;;32.13;25.92;96371.59;5115308;28;20047;-65
2022/08/05 10:33:29;;;;;;;2.05;1.40;;;;;;;32.03;26.57;96374.69;5115120;27;20040;-66
2022/08/05 10:36:02;;;;;;;2.30;1.77;;;;;;;32.22;26.50;96364.16;5115162;28;20044;-65
2022/08/05 10:38:32;;;;;;;2.63;1.80;;;;;;;32.53;26.94;96366.41;5115083;27;20071;-65
2022/08/05 10:41:07;;;;;;;1.80;1.70;;;;;;;32.94;25.99;96371.94;5114983;28;20122;-66
2022/08/05 10:43:47;;;;;;;2.83;1.80;;;;;;;32.73;25.17;96368.34;5114993;28;20124;-66
2022/08/05 10:46:17;;;;;;;2.03;1.67;;;;;;;32.22;26.24;96367.69;5115002;28;20050;-66
2022/08/05 10:48:47;;;;;;;2.83;2.13;;;;;;;32.17;26.12;96364.75;5115005;28;20051;-67
2022/08/05 10:51:16;;;;;;;1.92;1.63;;;;;;;32.36;25.72;96359.66;5114782;28;20044;-66
2022/08/05 10:53:52;;;;;;;1.50;1.40;;;;;;;32.59;24.24;96353.09;5114669;28;20096;-66
2022/08/05 10:56:20;;;;;;;1.95;1.70;;;;;;;32.59;24.61;96342.28;5114591;28;20043;-67
2022/08/05 10:58:50;;;;;;;6.25;1.67;;;;;;;32.72;24.66;96331.47;5114819;28;20093;-68
2022/08/05 11:01:17;;;;;;;1.83;1.67;;;;;;;33.09;23.31;96336.56;5114570;28;20044;-66
2022/08/05 11:04:07;;;;;;;2.25;1.55;;;;;;;33.14;23.04;96341.38;5114428;28;20046;-65
2022/08/05 11:06:36;;;;;;;3.65;1.60;;;;;;;33.31;23.25;96344.47;5113764;28;20083;-68
2022/08/05 11:09:27;;;;;;;2.13;1.55;;;;;;;33.23;23.19;96336.56;5114449;28;20054;-68
2022/08/05 11:11:56;;;;;;;2.25;1.60;;;;;;;33.30;23.46;96336.56;5099057;28;20080;-69
2022/08/05 11:14:30;;;;;;;2.03;1.50;;;;;;;33.22;24.85;96335.72;5114521;28;20093;-70
2022/08/05 11:17:39;;;;;;;1.70;1.58;;;;;;;33.54;24.08;96335.09;5114300;28;20088;-67
2022/08/05 11:20:29;;;;;;;3.15;1.80;;;;;;;34.01;23.57;96321.44;5098660;28;20043;-66
2022/08/05 11:22:56;;;;;;;2.33;1.65;;;;;;;34.34;23.18;96314.25;5114179;28;20074;-66
2022/08/05 11:25:34;;;;;;;2.60;1.83;;;;;;;34.12;22.38;96317.28;5114117;28;20089;-65
2022/08/05 11:28:38;;;;;;;2.72;1.40;;;;;;;33.95;22.49;96324.19;5114186;28;20052;-68
2022/08/05 11:31:30;;;;;;;3.63;1.63;;;;;;;34.05;22.72;96327.28;5114148;28;20051;-67
2022/08/05 11:34:06;;;;;;;2.53;1.70;;;;;;;34.21;22.68;96319.75;5113995;28;20044;-66
2022/08/05 11:36:46;;;;;;;1.98;1.45;;;;;;;34.35;22.68;96315.94;5114159;28;20047;-66
2022/08/05 11:39:15;;;;;;;3.47;1.63;;;;;;;34.30;22.79;96318.47;5114244;28;20066;-68
2022/08/05 11:41:50;;;;;;;3.00;1.58;;;;;;;34.06;22.81;96315.38;5113927;28;20051;-67
2022/08/05 11:44:19;;;;;;;1.58;1.48;;;;;;;33.62;22.80;96312.41;5113876;28;20104;-66
2022/08/05 11:46:48;;;;;;;1.70;1.58;;;;;;;33.21;23.39;96317.81;5113986;28;20067;-67
2022/08/05 11:49:17;;;;;;;6.25;1.40;;;;;;;33.27;24.13;96325.13;5113825;28;20066;-66
2022/08/05 11:51:48;;;;;;;3.20;1.60;;;;;;;33.51;23.79;96324.66;5113766;28;20400;-66